Rodney E. Settoon — WDH5388 — position and weather

sailwx.info

Track history (hours):
 
Tides and Currents Weather Stations Pressure Air Temp Water Temp Dewpoint Dewpoint Depression Visibility Wind Speed Wind Dir Waves Ship Positions

Rodney E. Settoon

Owner: Settoon Towing, L.L.C., Houma, LA. More information available from US FCC via Universal Licensing System and Coast Guard Vessel Documentation Center.

Last reported at 2017-Nov-17 02:39 UTC. Time now 2017-Nov-18 23:38 UTC.
Position N 29°34' W 090°56'.

Type: Towing. MMSI: 367627470.

Date/timePositionNaut miles runAvg speedWind from/ knotsBaromVisibWave heightAir tempDewpointWater temp
2017-Nov-17 02:39N 29°34' W 090°56'1 5.1
2017-Nov-17 02:22N 29°33' W 090°54'2 5.1
2017-Nov-17 01:54N 29°32' W 090°52'2 5.3
2017-Nov-17 01:30N 29°32' W 090°50'2 4.8
2017-Nov-17 01:00N 29°32' W 090°47'2 4.7
2017-Nov-17 00:30N 29°34' W 090°45'2 3.4
2017-Nov-17 00:00N 29°34' W 090°43'0 0.0
2017-Nov-16 23:30N 29°34' W 090°43'0 0.0
2017-Nov-16 23:00N 29°34' W 090°43'2 4.3
2017-Nov-16 22:30N 29°32' W 090°42'3 5.7
2017-Nov-16 22:00N 29°29' W 090°43'3 5.4
2017-Nov-16 21:30N 29°26' W 090°43'4 0.1
2017-Nov-15 10:49N 29°22' W 090°44'2 5.0
2017-Nov-15 10:25N 29°24' W 090°44'2 5.4
2017-Nov-15 10:00N 29°26' W 090°43'3 5.5
2017-Nov-15 09:30N 29°29' W 090°43'3 5.4
2017-Nov-15 09:00N 29°32' W 090°42'2 4.8
2017-Nov-15 08:30N 29°34' W 090°43'1 1.6
2017-Nov-15 08:00N 29°34' W 090°44'3 5.1
2017-Nov-15 07:30N 29°32' W 090°46'3 5.6
2017-Nov-15 07:00N 29°32' W 090°49'3 5.5
2017-Nov-15 06:25N 29°32' W 090°53'2 5.1
2017-Nov-15 05:56N 29°34' W 090°55'5 5.3
2017-Nov-15 05:02N 29°37' W 090°59'  
2017-Nov-11 17:56N 29°25' W 090°44'2 5.6
2017-Nov-11 17:30N 29°27' W 090°43'3 5.6
2017-Nov-11 17:00N 29°30' W 090°43'3 5.4
2017-Nov-11 16:30N 29°32' W 090°42'2 3.8
2017-Nov-11 16:00N 29°34' W 090°43'1 2.4
2017-Nov-11 15:30N 29°34' W 090°44'2 3.3
2017-Nov-11 15:00N 29°33' W 090°46'3 5.1
2017-Nov-11 14:30N 29°32' W 090°48'5 5.4
2017-Nov-11 13:40N 29°33' W 090°54'1 5.7
2017-Nov-11 13:30N 29°33' W 090°55'1 0.1
2017-Nov-10 10:19N 29°34' W 090°56'2 5.5
2017-Nov-10 09:55N 29°33' W 090°54'2 5.5
2017-Nov-10 09:30N 29°32' W 090°51'3 5.7
2017-Nov-10 09:00N 29°32' W 090°48'2 5.0
2017-Nov-10 08:30N 29°33' W 090°45'2 4.8
2017-Nov-10 08:00N 29°34' W 090°43'2 3.2
2017-Nov-10 07:30N 29°33' W 090°42'3 6.0
2017-Nov-10 07:00N 29°30' W 090°43'3 6.4
2017-Nov-10 06:30N 29°27' W 090°43'4 2.7
2017-Nov-10 05:02N 29°23' W 090°44'0 0.9
2017-Nov-10 04:55N 29°23' W 090°44'  
2017-Nov-07 19:08N 29°23' W 090°44'2 6.8
2017-Nov-07 18:51N 29°24' W 090°44'2 6.6
2017-Nov-07 18:30N 29°27' W 090°43'3 6.5
2017-Nov-07 18:00N 29°30' W 090°43'3 6.1
2017-Nov-07 17:30N 29°33' W 090°42'1 2.8
2017-Nov-07 17:00N 29°34' W 090°43'2 4.6
2017-Nov-07 16:30N 29°33' W 090°45'3 5.5
2017-Nov-07 16:00N 29°32' W 090°49'4 5.9
2017-Nov-07 15:15N 29°33' W 090°54'2 6.0
2017-Nov-07 14:59N 29°34' W 090°55'2 0.6
2017-Nov-07 11:37N 29°35' W 090°57'0 0.0
2017-Nov-07 11:23N 29°35' W 090°57'  
Track history (hours):
 
Tides and Currents Weather Stations Pressure Air Temp Water Temp Dewpoint Dewpoint Depression Visibility Wind Speed Wind Dir Waves Ship Positions

Rodney E. Settoon

Owner: Settoon Towing, L.L.C., Houma, LA. More information available from US FCC via Universal Licensing System and Coast Guard Vessel Documentation Center.

Last reported at 2017-Nov-17 02:39 UTC. Time now 2017-Nov-18 23:38 UTC.
Position N 29°34' W 090°56'.

Type: Towing. MMSI: 367627470.

Date/timePositionNaut miles runAvg speedWind from/ knotsBaromVisibWave heightAir tempDewpointWater temp
2017-Nov-17 02:39N 29°34' W 090°56'1 5.1
2017-Nov-17 02:22N 29°33' W 090°54'2 5.1
2017-Nov-17 01:54N 29°32' W 090°52'2 5.3
2017-Nov-17 01:30N 29°32' W 090°50'2 4.8
2017-Nov-17 01:00N 29°32' W 090°47'2 4.7
2017-Nov-17 00:30N 29°34' W 090°45'2 3.4
2017-Nov-17 00:00N 29°34' W 090°43'0 0.0
2017-Nov-16 23:30N 29°34' W 090°43'0 0.0
2017-Nov-16 23:00N 29°34' W 090°43'2 4.3
2017-Nov-16 22:30N 29°32' W 090°42'3 5.7
2017-Nov-16 22:00N 29°29' W 090°43'3 5.4
2017-Nov-16 21:30N 29°26' W 090°43'4 0.1
2017-Nov-15 10:49N 29°22' W 090°44'2 5.0
2017-Nov-15 10:25N 29°24' W 090°44'2 5.4
2017-Nov-15 10:00N 29°26' W 090°43'3 5.5
2017-Nov-15 09:30N 29°29' W 090°43'3 5.4
2017-Nov-15 09:00N 29°32' W 090°42'2 4.8
2017-Nov-15 08:30N 29°34' W 090°43'1 1.6
2017-Nov-15 08:00N 29°34' W 090°44'3 5.1
2017-Nov-15 07:30N 29°32' W 090°46'3 5.6
2017-Nov-15 07:00N 29°32' W 090°49'3 5.5
2017-Nov-15 06:25N 29°32' W 090°53'2 5.1
2017-Nov-15 05:56N 29°34' W 090°55'5 5.3
2017-Nov-15 05:02N 29°37' W 090°59'  
2017-Nov-11 17:56N 29°25' W 090°44'2 5.6
2017-Nov-11 17:30N 29°27' W 090°43'3 5.6
2017-Nov-11 17:00N 29°30' W 090°43'3 5.4
2017-Nov-11 16:30N 29°32' W 090°42'2 3.8
2017-Nov-11 16:00N 29°34' W 090°43'1 2.4
2017-Nov-11 15:30N 29°34' W 090°44'2 3.3
2017-Nov-11 15:00N 29°33' W 090°46'3 5.1
2017-Nov-11 14:30N 29°32' W 090°48'5 5.4
2017-Nov-11 13:40N 29°33' W 090°54'1 5.7
2017-Nov-11 13:30N 29°33' W 090°55'1 0.1
2017-Nov-10 10:19N 29°34' W 090°56'2 5.5
2017-Nov-10 09:55N 29°33' W 090°54'2 5.5
2017-Nov-10 09:30N 29°32' W 090°51'3 5.7
2017-Nov-10 09:00N 29°32' W 090°48'2 5.0
2017-Nov-10 08:30N 29°33' W 090°45'2 4.8
2017-Nov-10 08:00N 29°34' W 090°43'2 3.2
2017-Nov-10 07:30N 29°33' W 090°42'3 6.0
2017-Nov-10 07:00N 29°30' W 090°43'3 6.4
2017-Nov-10 06:30N 29°27' W 090°43'4 2.7
2017-Nov-10 05:02N 29°23' W 090°44'0 0.9
2017-Nov-10 04:55N 29°23' W 090°44'  
2017-Nov-07 19:08N 29°23' W 090°44'2 6.8
2017-Nov-07 18:51N 29°24' W 090°44'2 6.6
2017-Nov-07 18:30N 29°27' W 090°43'3 6.5
2017-Nov-07 18:00N 29°30' W 090°43'3 6.1
2017-Nov-07 17:30N 29°33' W 090°42'1 2.8
2017-Nov-07 17:00N 29°34' W 090°43'2 4.6
2017-Nov-07 16:30N 29°33' W 090°45'3 5.5
2017-Nov-07 16:00N 29°32' W 090°49'4 5.9
2017-Nov-07 15:15N 29°33' W 090°54'2 6.0
2017-Nov-07 14:59N 29°34' W 090°55'2 0.6
2017-Nov-07 11:37N 29°35' W 090°57'0 0.0
2017-Nov-07 11:23N 29°35' W 090°57'  

Dump ship's entire track history